createdAt,value
2022-08-08T00:00:54.071Z,90.90
2022-08-08T00:03:28.462Z,91.00
2022-08-08T00:06:10.336Z,91.20
2022-08-08T00:08:49.109Z,91.20
2022-08-08T00:11:46.867Z,91.30
2022-08-08T00:14:48.037Z,91.40
2022-08-08T00:17:48.116Z,91.40
2022-08-08T00:20:31.352Z,91.80
2022-08-08T00:23:10.465Z,91.60
2022-08-08T00:25:50.964Z,91.80
2022-08-08T00:28:35.016Z,91.90
2022-08-08T00:32:21.475Z,91.80
2022-08-08T00:34:31.730Z,92.10
2022-08-08T00:37:16.586Z,92.10
2022-08-08T00:41:11.653Z,92.50
2022-08-08T00:43:41.649Z,92.50
2022-08-08T00:46:57.292Z,92.80
2022-08-08T00:49:57.745Z,92.70
2022-08-08T00:52:40.027Z,92.60
2022-08-08T00:55:35.957Z,92.70
2022-08-08T00:58:54.499Z,92.90
2022-08-08T01:01:48.971Z,92.70
2022-08-08T01:04:29.819Z,92.80
2022-08-08T01:07:34.551Z,92.70
2022-08-08T01:10:50.779Z,92.60
2022-08-08T01:13:53.096Z,92.60
2022-08-08T01:17:02.632Z,92.60
2022-08-08T01:20:04.965Z,92.60
2022-08-08T01:23:03.538Z,92.70
2022-08-08T01:25:57.537Z,92.80
2022-08-08T01:28:59.103Z,92.90
2022-08-08T01:32:13.484Z,92.90
2022-08-08T01:34:51.014Z,92.90
2022-08-08T01:37:21.602Z,93.00
2022-08-08T01:40:34.580Z,92.90
2022-08-08T01:43:18.179Z,93.10
2022-08-08T01:46:13.330Z,92.90
2022-08-08T01:49:22.650Z,93.00
2022-08-08T01:52:56.041Z,93.00
2022-08-08T01:56:26.425Z,93.10
2022-08-08T01:58:38.108Z,92.90
2022-08-08T02:02:00.228Z,93.00
2022-08-08T02:04:35.260Z,93.00
2022-08-08T02:07:23.359Z,93.20
2022-08-08T02:10:04.131Z,93.20
2022-08-08T02:12:51.396Z,93.20
2022-08-08T02:15:46.503Z,93.30
2022-08-08T02:18:33.019Z,93.70
2022-08-08T02:21:48.901Z,93.50
2022-08-08T02:24:32.248Z,93.50
2022-08-08T02:27:01.055Z,93.50
2022-08-08T02:29:46.909Z,93.60
2022-08-08T02:32:37.499Z,93.80
2022-08-08T02:36:05.291Z,93.80
2022-08-08T02:38:44.803Z,93.90
2022-08-08T02:41:58.608Z,94.00
2022-08-08T02:44:52.870Z,94.00
2022-08-08T02:47:37.938Z,94.10
2022-08-08T02:50:04.945Z,94.20
2022-08-08T02:52:51.563Z,94.30
2022-08-08T02:55:59.747Z,94.20
2022-08-08T02:59:05.900Z,94.40
2022-08-08T03:02:30.621Z,94.50
2022-08-08T03:05:22.987Z,94.50
2022-08-08T03:08:14.299Z,94.60
2022-08-08T03:11:47.470Z,94.60
2022-08-08T03:16:00.294Z,94.70
2022-08-08T03:17:39.840Z,94.80
2022-08-08T03:20:07.868Z,94.80
2022-08-08T03:22:56.652Z,94.80
2022-08-08T03:25:34.058Z,94.90
2022-08-08T03:28:18.970Z,95.00
2022-08-08T03:30:48.746Z,95.10
2022-08-08T03:33:55.619Z,95.20
2022-08-08T03:36:13.004Z,95.20
2022-08-08T03:38:55.822Z,95.10
2022-08-08T03:42:26.668Z,95.10
2022-08-08T03:44:35.368Z,95.30
2022-08-08T03:47:13.903Z,95.30
2022-08-08T03:50:01.221Z,95.40
2022-08-08T03:52:34.042Z,95.40
2022-08-08T03:55:19.972Z,95.60
2022-08-08T03:58:30.415Z,95.60
2022-08-08T04:01:01.486Z,95.60
2022-08-08T04:03:58.275Z,95.70
2022-08-08T04:06:24.648Z,95.70
2022-08-08T04:08:57.686Z,95.80
2022-08-08T04:11:27.567Z,95.80
2022-08-08T04:14:04.243Z,95.80
2022-08-08T04:16:49.280Z,95.90
2022-08-08T04:19:25.129Z,96.00
2022-08-08T04:21:55.362Z,96.10
2022-08-08T04:24:30.547Z,96.10
2022-08-08T04:26:59.413Z,96.20
2022-08-08T04:29:27.271Z,96.40
2022-08-08T04:31:58.829Z,96.40
2022-08-08T04:34:32.015Z,96.50
2022-08-08T04:37:10.742Z,96.70
2022-08-08T04:40:03.844Z,96.70
2022-08-08T04:42:31.567Z,96.80
2022-08-08T04:45:00.514Z,97.00
2022-08-08T04:47:27.515Z,97.00
2022-08-08T04:50:04.522Z,97.00
2022-08-08T04:52:34.373Z,96.90
2022-08-08T04:55:02.541Z,97.00
2022-08-08T04:57:34.451Z,96.90
2022-08-08T05:00:02.512Z,97.00
2022-08-08T05:02:32.270Z,97.10
2022-08-08T05:05:00.976Z,97.30
2022-08-08T05:07:42.053Z,97.40
2022-08-08T05:10:12.948Z,97.50
2022-08-08T05:12:59.806Z,97.50
2022-08-08T05:16:48.263Z,97.50
2022-08-08T05:18:13.905Z,97.60
2022-08-08T05:20:49.993Z,97.50
2022-08-08T05:23:22.010Z,97.40
2022-08-08T05:25:51.364Z,97.30
2022-08-08T05:28:48.188Z,97.20
2022-08-08T05:31:19.418Z,97.00
2022-08-08T05:33:52.371Z,96.90
2022-08-08T05:36:28.259Z,95.60
2022-08-08T05:38:57.826Z,94.60
2022-08-08T05:41:26.020Z,94.10
2022-08-08T05:44:04.651Z,93.30
2022-08-08T05:46:33.444Z,92.80
2022-08-08T05:49:01.191Z,92.60
2022-08-08T05:51:48.064Z,92.40
2022-08-08T05:54:27.261Z,91.80
2022-08-08T05:57:11.235Z,91.30
2022-08-08T05:59:59.936Z,90.80
2022-08-08T06:02:54.335Z,90.70
2022-08-08T06:05:34.691Z,90.70
2022-08-08T06:08:09.515Z,90.20
2022-08-08T06:10:44.936Z,90.40
2022-08-08T06:13:12.502Z,90.30
2022-08-08T06:15:51.313Z,90.20
2022-08-08T06:18:22.312Z,89.30
2022-08-08T06:20:57.221Z,89.60
2022-08-08T06:23:52.948Z,87.60
2022-08-08T06:26:43.626Z,88.00
2022-08-08T06:29:18.752Z,87.60
2022-08-08T06:32:09.961Z,86.90
2022-08-08T06:34:39.819Z,86.10
2022-08-08T06:37:25.274Z,87.20
2022-08-08T06:39:56.993Z,86.00
2022-08-08T06:42:28.396Z,85.80
2022-08-08T06:44:55.760Z,85.60
2022-08-08T06:47:22.872Z,85.50
2022-08-08T06:50:00.956Z,85.80
2022-08-08T06:52:32.096Z,84.60
2022-08-08T06:55:01.325Z,85.00
2022-08-08T06:57:29.500Z,84.50
2022-08-08T07:00:30.025Z,83.90
2022-08-08T07:03:04.740Z,83.20
2022-08-08T07:05:40.396Z,83.00
2022-08-08T07:08:20.683Z,84.50
2022-08-08T07:10:56.754Z,82.80
2022-08-08T07:13:28.405Z,82.30
2022-08-08T07:16:16.382Z,82.20
2022-08-08T07:19:26.226Z,83.10
2022-08-08T07:22:05.542Z,81.30
2022-08-08T07:24:38.875Z,82.30
2022-08-08T07:27:12.473Z,81.10
2022-08-08T07:30:01.787Z,81.40
2022-08-08T07:32:32.364Z,81.30
2022-08-08T07:35:08.615Z,80.70
2022-08-08T07:37:55.537Z,80.40
2022-08-08T07:40:28.855Z,80.00
2022-08-08T07:42:57.378Z,80.00
2022-08-08T07:45:26.500Z,79.90
2022-08-08T07:48:05.157Z,80.60
2022-08-08T07:50:37.395Z,80.20
2022-08-08T07:53:52.294Z,79.10
2022-08-08T07:56:10.841Z,80.80
2022-08-08T07:58:44.287Z,79.00
2022-08-08T08:01:20.154Z,78.60
2022-08-08T08:04:07.988Z,78.80
2022-08-08T08:06:43.138Z,79.00
2022-08-08T08:09:33.115Z,78.90
2022-08-08T08:12:03.214Z,78.30
2022-08-08T08:14:40.409Z,78.10
2022-08-08T08:17:09.723Z,78.80
2022-08-08T08:19:45.356Z,79.00
2022-08-08T08:22:16.280Z,80.20
2022-08-08T08:25:07.455Z,80.30
2022-08-08T08:27:35.668Z,79.40
2022-08-08T08:30:02.815Z,79.60
2022-08-08T08:32:36.247Z,80.20
2022-08-08T08:35:08.442Z,79.90
2022-08-08T08:37:52.981Z,79.90
2022-08-08T08:40:22.663Z,81.70
2022-08-08T08:42:53.036Z,80.70
2022-08-08T08:45:26.823Z,80.50
2022-08-08T08:47:58.372Z,78.80
2022-08-08T08:50:32.538Z,79.00
2022-08-08T08:53:54.957Z,78.90
2022-08-08T08:55:53.958Z,78.10
2022-08-08T08:58:46.930Z,78.20
2022-08-08T09:01:19.462Z,77.50
2022-08-08T09:03:50.705Z,77.40
2022-08-08T09:06:26.139Z,77.60
2022-08-08T09:09:35.294Z,76.40
2022-08-08T09:12:09.502Z,76.90
2022-08-08T09:14:42.223Z,77.80
2022-08-08T09:17:17.295Z,77.40
2022-08-08T09:22:02.794Z,77.10
2022-08-08T09:22:35.304Z,77.20
2022-08-08T09:25:04.095Z,77.80
2022-08-08T09:27:56.141Z,79.10
2022-08-08T09:30:26.064Z,77.00
2022-08-08T09:33:12.678Z,75.90
2022-08-08T09:35:49.159Z,75.70
2022-08-08T09:38:31.824Z,74.90
2022-08-08T09:41:05.139Z,76.40
2022-08-08T09:43:41.214Z,77.10
2022-08-08T09:46:30.615Z,78.30
2022-08-08T09:49:18.172Z,77.20
2022-08-08T09:52:06.078Z,75.60
2022-08-08T09:54:46.906Z,76.30
2022-08-08T09:57:19.123Z,76.10
2022-08-08T10:02:48.144Z,76.20
2022-08-08T10:05:22.929Z,75.30
2022-08-08T10:07:52.337Z,76.20
2022-08-08T10:10:39.010Z,76.20
2022-08-08T10:13:35.636Z,75.90
2022-08-08T10:16:03.725Z,75.00
2022-08-08T10:18:36.146Z,75.00
2022-08-08T10:21:22.842Z,75.30
2022-08-08T10:23:58.422Z,75.20
2022-08-08T10:26:57.494Z,74.20
2022-08-08T10:29:57.028Z,74.60
2022-08-08T10:32:38.322Z,74.30
2022-08-08T10:36:06.882Z,75.60
2022-08-08T10:38:05.863Z,75.00
2022-08-08T10:40:38.313Z,74.50
2022-08-08T10:43:06.409Z,74.10
2022-08-08T10:45:56.800Z,73.40
2022-08-08T10:48:57.713Z,74.10
2022-08-08T10:51:47.579Z,74.00
2022-08-08T10:54:25.190Z,75.10
2022-08-08T10:56:58.376Z,73.80
2022-08-08T10:59:27.005Z,73.00
2022-08-08T11:04:38.464Z,73.30
2022-08-08T11:07:06.743Z,73.00
2022-08-08T11:09:33.872Z,75.60
2022-08-08T11:12:13.351Z,73.90
2022-08-08T11:14:52.674Z,73.50
2022-08-08T11:17:59.993Z,73.90
2022-08-08T11:20:18.305Z,73.20
2022-08-08T11:22:51.862Z,72.60
2022-08-08T11:25:52.689Z,72.80
2022-08-08T11:28:13.471Z,73.50
2022-08-08T11:30:52.023Z,74.00
2022-08-08T11:34:01.311Z,73.50
2022-08-08T11:36:13.393Z,74.00
2022-08-08T11:38:54.666Z,71.70
2022-08-08T11:41:24.414Z,71.70
2022-08-08T11:43:53.892Z,72.20
2022-08-08T11:46:25.645Z,71.30
2022-08-08T11:48:55.732Z,72.40
2022-08-08T11:51:37.960Z,72.30
2022-08-08T11:54:27.167Z,72.80
2022-08-08T11:56:57.978Z,72.90
2022-08-08T11:59:58.622Z,73.50
2022-08-08T12:02:41.637Z,73.80
2022-08-08T12:05:13.203Z,72.50
2022-08-08T12:07:52.164Z,74.90
2022-08-08T12:10:26.653Z,74.10
2022-08-08T12:13:12.174Z,72.90
2022-08-08T12:15:48.291Z,71.90
2022-08-08T12:18:26.589Z,72.50
2022-08-08T12:20:56.640Z,72.80
2022-08-08T12:23:43.034Z,72.20
2022-08-08T12:26:41.652Z,71.40
2022-08-08T12:29:40.097Z,72.20
2022-08-08T12:32:19.711Z,71.70
2022-08-08T12:35:01.222Z,72.90
2022-08-08T12:37:41.405Z,72.90
2022-08-08T12:40:22.926Z,72.70
2022-08-08T12:42:52.033Z,72.40
2022-08-08T12:45:57.903Z,72.90
2022-08-08T12:48:36.005Z,71.60
2022-08-08T12:51:02.979Z,72.60
2022-08-08T12:53:36.427Z,71.80
2022-08-08T12:56:19.546Z,70.50
2022-08-08T12:58:54.059Z,70.70
2022-08-08T13:01:34.968Z,71.20
2022-08-08T13:04:18.504Z,70.90
2022-08-08T13:07:06.741Z,70.90
2022-08-08T13:10:05.478Z,70.60
2022-08-08T13:12:48.450Z,69.00
2022-08-08T13:15:19.299Z,68.80
2022-08-08T13:18:09.288Z,68.50
2022-08-08T13:20:44.592Z,69.10
2022-08-08T13:23:41.231Z,69.90
2022-08-08T13:26:14.760Z,68.50
2022-08-08T13:28:45.578Z,69.90
2022-08-08T13:31:16.497Z,69.40
2022-08-08T13:33:50.136Z,68.80
2022-08-08T13:36:25.966Z,68.80
2022-08-08T13:38:59.330Z,68.90
2022-08-08T13:41:28.426Z,67.90
2022-08-08T13:44:07.297Z,67.70
2022-08-08T13:46:38.328Z,67.30
2022-08-08T13:50:37.205Z,65.70
2022-08-08T13:52:07.561Z,66.70
2022-08-08T13:54:44.050Z,65.90
2022-08-08T13:57:16.699Z,65.90
2022-08-08T13:59:48.747Z,65.00
2022-08-08T14:02:31.024Z,65.20
2022-08-08T14:05:08.994Z,65.00
2022-08-08T14:07:52.610Z,64.80
2022-08-08T14:10:33.361Z,66.20
2022-08-08T14:13:30.967Z,65.30
2022-08-08T14:16:16.056Z,64.70
2022-08-08T14:18:53.594Z,64.50
2022-08-08T14:21:22.396Z,64.90
2022-08-08T14:24:07.386Z,62.80
2022-08-08T14:26:46.348Z,62.00
2022-08-08T14:29:28.389Z,62.00
2022-08-08T14:32:09.186Z,62.20
2022-08-08T14:34:43.582Z,62.00
2022-08-08T14:37:16.305Z,61.30
2022-08-08T14:39:53.778Z,59.80
2022-08-08T14:42:34.827Z,60.80
2022-08-08T14:45:10.614Z,59.70
2022-08-08T14:47:52.093Z,59.60
2022-08-08T14:50:38.424Z,59.70
2022-08-08T14:53:15.513Z,60.90
2022-08-08T14:55:43.045Z,60.80
2022-08-08T14:58:15.973Z,59.70
2022-08-08T15:00:43.379Z,60.10
2022-08-08T15:03:15.836Z,59.50
2022-08-08T15:05:54.620Z,59.50
2022-08-08T15:08:34.936Z,59.80
2022-08-08T15:11:07.442Z,59.70
2022-08-08T15:13:40.982Z,59.40
2022-08-08T15:16:23.539Z,59.90
2022-08-08T15:18:53.468Z,59.50
2022-08-08T15:21:20.849Z,59.50
2022-08-08T15:23:51.279Z,59.10
2022-08-08T15:26:25.674Z,59.70
2022-08-08T15:28:54.183Z,59.50
2022-08-08T15:31:56.326Z,59.10
2022-08-08T15:34:28.916Z,58.80
2022-08-08T15:36:56.663Z,58.30
2022-08-08T15:39:23.447Z,58.00
2022-08-08T15:41:52.641Z,58.00
2022-08-08T15:44:21.063Z,58.10
2022-08-08T15:46:50.958Z,57.90
2022-08-08T15:49:20.839Z,58.00
2022-08-08T15:51:54.679Z,58.80
2022-08-08T15:54:39.027Z,59.00
2022-08-08T15:57:09.058Z,60.00
2022-08-08T16:00:06.595Z,60.80
2022-08-08T16:02:31.404Z,61.20
2022-08-08T16:05:04.015Z,61.50
2022-08-08T16:07:52.136Z,61.20
2022-08-08T16:13:10.231Z,60.60
2022-08-08T16:13:30.502Z,60.70
2022-08-08T16:15:58.703Z,62.30
2022-08-08T16:18:27.612Z,63.80
2022-08-08T16:21:00.003Z,64.60
2022-08-08T16:23:32.179Z,65.90
2022-08-08T16:26:05.002Z,66.30
2022-08-08T16:28:41.513Z,66.40
2022-08-08T16:31:09.381Z,66.90
2022-08-08T16:33:40.058Z,67.10
2022-08-08T16:36:09.909Z,67.20
2022-08-08T16:38:53.626Z,68.50
2022-08-08T16:41:23.328Z,67.60
2022-08-08T16:43:54.703Z,68.20
2022-08-08T16:46:39.279Z,68.70
2022-08-08T16:49:09.554Z,68.50
2022-08-08T16:55:00.061Z,69.00
2022-08-08T16:55:04.483Z,68.60
2022-08-08T16:57:23.222Z,68.90
2022-08-08T17:00:09.300Z,69.20
2022-08-08T17:02:39.684Z,70.50
2022-08-08T17:05:13.751Z,69.30
2022-08-08T17:07:51.472Z,69.60
2022-08-08T17:10:19.487Z,69.50
2022-08-08T17:12:53.146Z,69.50
2022-08-08T17:15:23.365Z,69.80
2022-08-08T17:18:02.589Z,70.00
2022-08-08T17:20:39.699Z,69.90
2022-08-08T17:23:17.748Z,69.80
2022-08-08T17:25:54.727Z,70.50
2022-08-08T17:28:30.756Z,69.70
2022-08-08T17:31:44.419Z,69.90
2022-08-08T17:34:36.729Z,70.30
2022-08-08T17:36:36.999Z,70.20
2022-08-08T17:39:46.114Z,70.40
2022-08-08T17:41:58.581Z,70.10
2022-08-08T17:44:29.422Z,70.00
2022-08-08T17:47:00.783Z,70.00
2022-08-08T17:49:42.852Z,70.30
2022-08-08T17:52:10.492Z,70.90
2022-08-08T17:54:37.662Z,70.90
2022-08-08T17:57:05.891Z,71.10
2022-08-08T17:59:45.617Z,71.20
2022-08-08T18:02:16.406Z,71.20
2022-08-08T18:04:50.314Z,72.00
2022-08-08T18:08:15.537Z,72.50
2022-08-08T18:10:07.916Z,72.50
2022-08-08T18:12:35.458Z,73.20
2022-08-08T18:15:03.811Z,73.20
2022-08-08T18:18:05.179Z,73.30
2022-08-08T18:20:43.653Z,73.10
2022-08-08T18:23:07.618Z,74.00
2022-08-08T18:25:42.338Z,74.00
2022-08-08T18:28:13.256Z,74.50
2022-08-08T18:30:41.103Z,74.30
2022-08-08T18:33:10.592Z,74.60
2022-08-08T18:35:48.792Z,75.50
2022-08-08T18:38:17.048Z,75.20
2022-08-08T18:40:48.956Z,75.60
2022-08-08T18:43:16.374Z,75.90
2022-08-08T18:46:00.690Z,76.30
2022-08-08T18:48:31.363Z,76.80
2022-08-08T18:50:58.908Z,77.30
2022-08-08T18:53:29.685Z,77.40
2022-08-08T18:56:25.396Z,77.50
2022-08-08T19:02:25.083Z,77.80
2022-08-08T19:04:23.514Z,78.20
2022-08-08T19:06:56.637Z,78.50
2022-08-08T19:09:49.454Z,78.70
2022-08-08T19:12:13.488Z,79.00
2022-08-08T19:14:40.563Z,79.10
2022-08-08T19:17:10.555Z,79.30
2022-08-08T19:19:44.063Z,79.30
2022-08-08T19:22:11.316Z,79.90
2022-08-08T19:24:53.642Z,79.80
2022-08-08T19:27:55.560Z,81.00
2022-08-08T19:30:24.133Z,80.70
2022-08-08T19:32:54.199Z,81.40
2022-08-08T19:35:45.317Z,81.30
2022-08-08T19:38:17.319Z,81.20
2022-08-08T19:40:50.089Z,81.50
2022-08-08T19:43:28.371Z,81.60
2022-08-08T19:45:59.360Z,81.60
2022-08-08T19:48:30.692Z,81.90
2022-08-08T19:51:03.500Z,82.20
2022-08-08T19:53:53.568Z,82.10
2022-08-08T19:56:25.943Z,82.20
2022-08-08T19:59:04.409Z,82.40
2022-08-08T20:02:02.120Z,82.60
2022-08-08T20:04:21.372Z,82.80
2022-08-08T20:06:50.867Z,83.00
2022-08-08T20:09:22.869Z,83.20
2022-08-08T20:11:50.522Z,83.20
2022-08-08T20:14:34.018Z,83.10
2022-08-08T20:17:03.714Z,83.50
2022-08-08T20:19:34.773Z,83.70
2022-08-08T20:22:20.812Z,83.60
2022-08-08T20:25:00.176Z,83.70
2022-08-08T20:27:27.456Z,83.70
2022-08-08T20:30:53.644Z,84.10
2022-08-08T20:33:18.692Z,84.20
2022-08-08T20:35:58.344Z,84.00
2022-08-08T20:38:32.737Z,84.20
2022-08-08T20:41:05.410Z,84.20
2022-08-08T20:43:44.218Z,84.50
2022-08-08T20:46:15.940Z,84.50
2022-08-08T20:48:44.243Z,84.50
2022-08-08T20:51:11.297Z,84.60
2022-08-08T20:53:58.852Z,84.80
2022-08-08T20:56:35.764Z,84.70
2022-08-08T20:59:15.926Z,84.90
2022-08-08T21:02:06.180Z,85.00
2022-08-08T21:04:35.465Z,85.10
2022-08-08T21:07:04.976Z,85.30
2022-08-08T21:10:01.627Z,85.50
2022-08-08T21:12:24.865Z,85.70
2022-08-08T21:14:59.166Z,86.00
2022-08-08T21:17:34.858Z,85.80
2022-08-08T21:20:02.603Z,85.90
2022-08-08T21:22:30.969Z,85.90
2022-08-08T21:24:58.372Z,85.80
2022-08-08T21:28:05.731Z,86.00
2022-08-08T21:30:19.112Z,86.30
2022-08-08T21:32:51.821Z,86.50
2022-08-08T21:36:18.002Z,86.90
2022-08-08T21:38:17.193Z,86.30
2022-08-08T21:40:56.508Z,86.40
2022-08-08T21:43:25.492Z,86.40
2022-08-08T21:48:01.534Z,86.70
2022-08-08T21:48:49.130Z,86.60
2022-08-08T21:51:46.080Z,86.80
2022-08-08T21:54:34.463Z,87.10
2022-08-08T21:57:08.083Z,87.10
2022-08-08T22:00:02.894Z,87.40
2022-08-08T22:02:24.193Z,87.60
2022-08-08T22:04:58.928Z,87.90
2022-08-08T22:07:34.820Z,88.70
2022-08-08T22:10:09.102Z,88.30
2022-08-08T22:12:36.878Z,88.50
2022-08-08T22:15:04.290Z,88.70
2022-08-08T22:17:32.554Z,89.00
2022-08-08T22:20:23.517Z,89.30
2022-08-08T22:22:52.416Z,89.40
2022-08-08T22:25:25.762Z,89.50
2022-08-08T22:28:03.689Z,90.10
2022-08-08T22:30:43.984Z,90.10
2022-08-08T22:34:10.452Z,90.30
2022-08-08T22:36:11.974Z,90.30
2022-08-08T22:38:47.990Z,90.40
2022-08-08T22:41:16.015Z,90.50
2022-08-08T22:44:02.304Z,90.70
2022-08-08T22:46:33.397Z,90.80
2022-08-08T22:49:00.202Z,90.80
2022-08-08T22:51:28.910Z,90.90
2022-08-08T22:54:28.463Z,91.00
2022-08-08T22:56:50.115Z,91.10
2022-08-08T22:59:18.569Z,91.10
2022-08-08T23:02:01.607Z,91.30
2022-08-08T23:04:32.329Z,91.30
2022-08-08T23:07:02.634Z,91.30
2022-08-08T23:09:30.619Z,91.30
2022-08-08T23:12:29.188Z,91.60
2022-08-08T23:14:56.406Z,91.60
2022-08-08T23:17:46.744Z,91.70
2022-08-08T23:20:21.283Z,92.20
2022-08-08T23:22:54.990Z,92.00
2022-08-08T23:25:21.809Z,92.00
2022-08-08T23:27:49.260Z,92.00
2022-08-08T23:30:22.480Z,92.10
2022-08-08T23:32:50.251Z,92.00
2022-08-08T23:35:18.850Z,92.10
2022-08-08T23:38:01.479Z,92.10
2022-08-08T23:40:29.596Z,92.10
2022-08-08T23:42:57.201Z,92.20
2022-08-08T23:49:04.473Z,92.20
2022-08-08T23:49:04.764Z,92.20
2022-08-08T23:50:58.365Z,92.20
2022-08-08T23:54:05.195Z,92.30
2022-08-08T23:56:31.864Z,92.30
2022-08-08T23:58:59.530Z,92.40
